• Join FlightAware (Why Join?)
  • Login
  • US Flag 
06:47PM EDT


 

Airport Tracker/Info


-or-


 

Live Flight TrackerFlight Track Log ✈ UAL4530 ✈ 15-Apr-2013 ✈ KEWR - KMCI

Flight Track Log - Related Links

Times and Time Zones

All times are in EDT time to prevent confusion due to time zone crossing. See the UAL4530 flight status page for this flight to view local times or setup timezone preferences in your user account.

Time Position Orientation Groundspeed Altitude Reporting Facility
EDT Latitude Longitude Course Direction KTS MPH feet Rate Location/Type
01:52PM 40.6333 -74.1833 270° West 188 216 2,500  Level New York TRACON
01:53PM 40.6333 -74.2500 270° West 228 262 4,700 2,400 Climbing New York TRACON
01:54PM 40.6667 -74.3333 298° West 248 285 7,300 2,280 Climbing New York TRACON
01:55PM 40.7456 -74.6510 277° West  Level FlightAware Approximate
01:55PM 40.7333 -74.3667 339° North 276 318 9,300  Level New York TRACON
01:56PM 40.7560 -74.7769 276° West  Level FlightAware Approximate
01:56PM 40.8167 -74.4000 343° North 303 349 11,300  Level New York TRACON
01:57PM 40.7656 -74.9030 276° West  Level FlightAware Approximate
01:57PM 40.9000 -74.4333 343° North 305 351 12,400  Level New York TRACON
01:58PM 40.7833 -75.0250 270° West  Level FlightAware Approximate
01:58PM 40.9314 -74.4461 343° North 314 361 12,900  Level New York Center
01:59PM 40.9731 -74.5169 308° West 269 310 13,000 960 Climbing New York Center
02:00PM 40.9461 -74.6392 254° West 278 320 14,900 1,620 Climbing New York Center
02:01PM 40.9178 -74.7392 249° West 312 359 16,300 1,020 Climbing New York Center
02:02PM 40.8800 -74.8686 249° West 343 395 17,000 300 Climbing New York Center
02:03PM 40.8444 -74.9925 249° West 364 419 17,000 540 Level New York Center
02:04PM 40.8089 -75.1111 248° West 370 426 18,100 1,140 Climbing New York Center
02:05PM 40.7875 -75.2383 258° West 358 412 19,400 1,560 Climbing New York Center
02:06PM 40.7706 -75.3525 259° West 358 412 21,300 1,620 Climbing New York Center
02:07PM 40.7322 -75.4786 248° West 353 406 22,700 1,260 Climbing New York Center
02:08PM 40.6878 -75.5986 244° Southwest 358 412 23,800 1,140 Climbing New York Center
02:09PM 40.6411 -75.7214 243° Southwest 369 425 25,000 1,140 Climbing New York Center
02:10PM 40.5942 -75.8436 243° Southwest 375 432 26,100 1,080 Climbing New York Center
02:11PM 40.5497 -75.9578 243° Southwest 381 438 27,200 960 Climbing New York Center
02:12PM 40.5025 -76.0825 244° Southwest 381 438 28,000 780 Climbing New York Center
02:13PM 40.4483 -76.2203 243° Southwest 386 444 28,800 840 Climbing New York Center
02:14PM 40.3986 -76.3500 243° Southwest 391 450 29,700 840 Climbing New York Center
02:15PM 40.3528 -76.4797 245° Southwest 397 457 30,600 960 Climbing New York Center
02:16PM 40.3211 -76.6158 253° West 397 457 31,700 1,020 Climbing New York Center
02:17PM 40.2853 -76.7461 250° West 392 451 32,700 960 Climbing New York Center
02:18PM 40.2536 -76.8769 252° West 386 444 33,700 960 Climbing New York Center
02:19PM 40.2200 -77.0017 251° West 386 444 34,700 960 Climbing New York Center
02:20PM 40.1881 -77.1319 252° West 376 433 35,700 600 Climbing New York Center
02:21PM 40.1564 -77.2542 251° West 370 426 36,000 60 Climbing New York Center
02:23PM 40.1292 -77.5633 264° West 373 429 36,000  Level Cleveland Center
02:24PM 40.1267 -77.7022 269° West 380 437 36,000  Level Cleveland Center
02:25PM 40.1261 -77.8461 270° West 387 445 36,000  Level Cleveland Center
02:26PM 40.1189 -77.9847 266° West 387 445 36,000  Level Cleveland Center
02:27PM 40.1156 -78.1233 268° West 387 445 36,000  Level Cleveland Center
02:28PM 40.1103 -78.2619 267° West 387 445 36,000  Level Cleveland Center
02:29PM 40.1089 -78.4006 269° West 387 445 36,000  Level Cleveland Center
02:30PM 40.1050 -78.5392 268° West 387 445 36,000  Level Cleveland Center
02:31PM 40.0992 -78.6778 267° West 387 445 36,000  Level Cleveland Center
02:32PM 40.0953 -78.8217 268° West 387 445 36,000  Level Cleveland Center
02:33PM 40.0889 -78.9603 267° West 387 445 36,000  Level Cleveland Center
02:34PM 40.0867 -79.0986 269° West 387 445 36,000  Level Cleveland Center
02:35PM 40.0800 -79.2400 267° West 387 445 36,000  Level Cleveland Center
02:36PM 40.0797 -79.3811 270° West 387 445 36,000  Level Cleveland Center
02:37PM 40.0747 -79.5222 267° West 387 445 36,000  Level Cleveland Center
02:38PM 40.0675 -79.6608 266° West 387 445 36,000  Level Cleveland Center
02:39PM 40.0625 -79.8019 267° West 387 445 36,000  Level Cleveland Center
02:40PM 40.0592 -79.9267 268° West 387 445 36,000  Level Cleveland Center
02:41PM 40.0536 -80.0706 267° West 387 445 36,000  Level Cleveland Center
02:42PM 40.0478 -80.2117 267° West 387 445 36,000  Level Cleveland Center
02:43PM 40.0419 -80.3525 267° West 392 451 36,000  Level Cleveland Center
02:44PM 40.0339 -80.4936 266° West 392 451 36,000  Level Cleveland Center
02:45PM 40.0275 -80.6372 267° West 392 451 36,000  Level Cleveland Center
02:47PM 40.0153 -80.8847 266° West 393 452 36,000  Level Indianapolis Center
02:48PM 40.0144 -81.0283 270° West 392 451 36,000  Level Indianapolis Center
02:49PM 40.0114 -81.1719 268° West 392 451 36,000  Level Indianapolis Center
02:50PM 40.0089 -81.3389 269° West 393 452 36,000  Level Indianapolis Center
02:51PM 40.0056 -81.4822 268° West 391 450 36,000  Level Indianapolis Center
02:52PM 40.0036 -81.6258 269° West 392 451 36,000  Level Indianapolis Center
02:53PM 40.0006 -81.7697 268° West 393 452 36,000  Level Indianapolis Center
02:54PM 39.9972 -81.9050 268° West 392 451 36,000  Level Indianapolis Center
02:55PM 39.9936 -82.0469 268° West 391 450 36,000  Level Indianapolis Center
02:56PM 39.9908 -82.1900 269° West 392 451 36,000  Level Indianapolis Center
02:57PM 39.9867 -82.3564 268° West 390 449 36,000  Level Indianapolis Center
02:58PM 39.9828 -82.4986 268° West 389 448 36,000  Level Indianapolis Center
02:59PM 39.9786 -82.6392 268° West 386 444 36,000  Level Indianapolis Center
03:00PM 39.9742 -82.7850 268° West 386 444 36,000  Level Indianapolis Center
03:01PM 39.9697 -82.9242 268° West 384 442 36,000  Level Indianapolis Center
03:02PM 39.9664 -83.0644 268° West 387 445 36,000  Level Indianapolis Center
03:03PM 39.9636 -83.2033 269° West 386 444 36,000  Level Indianapolis Center
03:04PM 39.9592 -83.3417 268° West 384 442 36,000  Level Indianapolis Center
03:05PM 39.9536 -83.4825 267° West 388 447 36,000 -60 Level Indianapolis Center
03:06PM 39.9486 -83.6417 268° West 399 459 35,900  Descending Indianapolis Center
03:07PM 39.9475 -83.7878 269° West 378 435 36,000  Climbing Indianapolis Center
03:08PM 39.9472 -83.9236 270° West 376 433 36,000  Level Indianapolis Center
03:09PM 39.9486 -84.0592 271° West 374 430 36,000  Level Indianapolis Center
03:10PM 39.9500 -84.1969 271° West 379 436 36,000  Level Indianapolis Center
03:11PM 39.9500 -84.3517 270° West 380 437 36,000  Level Indianapolis Center
03:12PM 39.9492 -84.4917 270° West 383 441 36,000  Level Indianapolis Center
03:13PM 39.9489 -84.6303 270° West 381 438 36,000  Level Indianapolis Center
03:15PM 39.9486 -84.7697 270° West 382 440 36,000  Level Indianapolis Center
03:16PM 39.9494 -84.9083 270° West 379 436 36,000  Level Indianapolis Center
03:17PM 39.9494 -85.0447 270° West 377 434 36,000  Level Indianapolis Center
03:18PM 39.9486 -85.2047 270° West 375 432 36,000  Level Indianapolis Center
03:19PM 39.9475 -85.3433 269° West 379 436 36,000  Level Indianapolis Center
03:20PM 39.9453 -85.4819 269° West 379 436 36,000  Level Indianapolis Center
03:21PM 39.9461 -85.6208 270° West 381 438 36,000  Level Indianapolis Center
03:22PM 39.9425 -85.7597 268° West 380 437 36,000  Level Indianapolis Center
03:23PM 39.9417 -85.9006 270° West 383 441 36,000  Level Indianapolis Center
03:24PM 39.9403 -86.0506 269° West 384 442 36,000  Level Indianapolis Center
03:25PM 39.9386 -86.1894 269° West 383 441 36,000  Level Indianapolis Center
03:26PM 39.9372 -86.3264 269° West 380 437 36,000  Level Indianapolis Center
03:27PM 39.9350 -86.4639 269° West 379 436 36,000  Level Indianapolis Center
03:28PM 39.9325 -86.6000 269° West 377 434 36,000  Level Indianapolis Center
03:29PM 39.9294 -86.7364 268° West 376 433 36,000  Level Indianapolis Center
03:30PM 39.9269 -86.9003 269° West 377 434 36,000  Level Indianapolis Center
03:31PM 39.9247 -87.0378 269° West 379 436 36,000  Level Indianapolis Center
03:32PM 39.9214 -87.1736 268° West 376 433 36,000  Level Indianapolis Center
03:33PM 39.9186 -87.3078 268° West 372 428 36,000  Level Indianapolis Center
03:34PM 39.9153 -87.4453 268° West 376 433 36,000  Level Indianapolis Center
03:35PM 39.9117 -87.5831 268° West 380 437 36,000  Level Indianapolis Center
03:36PM 39.9086 -87.7228 268° West 383 441 36,000  Level Indianapolis Center
03:37PM 39.9044 -87.8617 268° West 383 441 36,000  Level Indianapolis Center
03:38PM 39.8994 -88.0250 268° West 381 438 36,000  Level Indianapolis Center
03:39PM 39.8953 -88.1608 268° West 378 435 36,000  Level Indianapolis Center
03:40PM 39.8925 -88.2964 269° West 377 434 36,000  Level Indianapolis Center
03:41PM 39.8856 -88.4311 266° West 380 437 36,000  Level Kansas City Center
03:42PM 39.8828 -88.5672 269° West 378 435 36,000  Level Kansas City Center
03:43PM 39.8767 -88.7069 267° West 384 442 36,000  Level Kansas City Center
03:44PM 39.8722 -88.8428 268° West 379 436 36,000  Level Kansas City Center
03:45PM 39.8683 -88.9792 268° West 377 434 36,000  Level Kansas City Center
03:46PM 39.8622 -89.1436 267° West 378 435 36,000  Level Kansas City Center
03:47PM 39.8561 -89.2817 267° West 380 437 36,000  Level Kansas City Center
03:49PM 39.8503 -89.4161 267° West 376 433 36,000  Level Kansas City Center
03:50PM 39.8453 -89.5497 267° West 371 427 36,000  Level Kansas City Center
03:51PM 39.8400 -89.6850 267° West 372 428 36,000  Level Kansas City Center
03:52PM 39.8403 -89.8233 270° West 377 434 36,000  Level Kansas City Center
03:53PM 39.8425 -89.9600 271° West 378 435 36,000  Level Kansas City Center
03:54PM 39.8442 -90.0964 271° West 377 434 36,000  Level Kansas City Center
03:55PM 39.8447 -90.2594 270° West 375 432 36,000  Level Kansas City Center
03:56PM 39.8461 -90.3975 271° West 378 435 36,000  Level Kansas City Center
03:57PM 39.8475 -90.5333 271° West 377 434 36,000  Level Kansas City Center
03:58PM 39.8469 -90.6700 270° West 377 434 36,000  Level Kansas City Center
03:59PM 39.8478 -90.8033 271° West 374 430 36,000  Level Kansas City Center
04:00PM 39.8478 -90.9367 270° West 370 426 36,000  Level Kansas City Center
04:01PM 39.8492 -91.0803 271° West 371 427 36,000  Level Kansas City Center
04:02PM 39.8483 -91.2128 270° West 369 425 36,000  Level Kansas City Center
04:03PM 39.8456 -91.3439 268° West 366 421 36,000  Level Kansas City Center
04:04PM 39.8314 -91.5028 263° West 369 425 36,000  Level Kansas City Center
04:05PM 39.8211 -91.6328 264° West 366 421 36,000  Level Kansas City Center
04:06PM 39.8119 -91.7633 265° West 366 421 36,000  Level Kansas City Center
04:07PM 39.8017 -91.8947 264° West 365 420 36,000  Level Kansas City Center
04:08PM 39.7925 -92.0247 265° West 365 420 36,000  Level Kansas City Center
04:09PM 39.7822 -92.1544 264° West 364 419 36,000 -720 Level Kansas City Center
04:10PM 39.7692 -92.3125 264° West 366 421 34,600 -1,440 Descending Kansas City Center
04:11PM 39.7583 -92.4442 264° West 368 423 33,100 -1,500 Descending Kansas City Center
04:12PM 39.7478 -92.5775 264° West 369 425 31,600 -1,440 Descending Kansas City Center
04:13PM 39.7347 -92.7164 263° West 380 437 30,100 -1,500 Descending Kansas City Center
04:14PM 39.7236 -92.8550 264° West 385 443 28,600 -1,500 Descending Kansas City Center
04:15PM 39.7111 -92.9944 263° West 388 447 27,100 -1,620 Descending Kansas City Center
04:16PM 39.6964 -93.1664 264° West 397 457 25,300 -1,620 Descending Kansas City Center
04:17PM 39.6839 -93.3050 263° West 392 451 23,800 -1,500 Descending Kansas City Center
04:18PM 39.6700 -93.4425 263° West 388 447 22,300 -1,500 Descending Kansas City Center
04:19PM 39.6589 -93.5761 264° West 380 437 20,700 -1,500 Descending Kansas City Center
04:20PM 39.6475 -93.7061 264° West 368 423 19,300 -1,500 Descending Kansas City Center
04:22PM 39.6339 -93.8461 263° West 362 417 17,700 -1,620 Descending Kansas City Center
04:23PM 39.5828 -93.9692 242° Southwest 348 400 16,000 -1,560 Descending Kansas City Center
04:24PM 39.5331 -94.0686 237° Southwest 344 396 14,500 -1,500 Descending Kansas City Center
04:25PM 39.4761 -94.1833 237° Southwest 339 390 12,900 -1,200 Descending Kansas City Center
04:26PM 39.4250 -94.2825 236° Southwest 345 397 12,100 -480 Descending Kansas City Center
04:27PM 39.3667 -94.3972 237° Southwest 343 395 12,000 -240 Descending Kansas City Center
04:28PM 39.3164 -94.4950 236° Southwest 342 394 11,700 -660 Descending Kansas City Center
04:29PM 39.2697 -94.5867 237° Southwest 317 365 10,700 -1,440 Descending Kansas City Center
04:30PM 39.1944 -94.6219 200° South 261 300 8,800 -2,340 Descending Kansas City Center
04:31PM 39.1319 -94.6561 203° Southwest 268 308 5,900 -2,280 Descending Kansas City Center
04:32PM 39.1597 -94.7419 293° West 256 295 4,200 -1,740 Descending Kansas City Center